Tiempo atmosférico en la estación meteorológica de Tinajo, Las Palmas (275 m.)



Fecha
DESCASC
Temp. máxima en grados centígrados (hora)
DESCASC
Temp. mínima en grados centígrados (hora)
DESCASC
Temp. media en grados centígrados
DESCASC
Racha de viento máxima en m/sg (hora)
DESCASC
Velocidad máxima media en intervalos de 10 minutos(hora)
DESCASC
Precipitaciones diarias en mm
DESCASC
Precipitaciones de 00:00 a 06:00 en mm
DESCASC
Precipitaciones de 06:00 a 12:00 en mm
DESCASC
Precipitaciones de 12:00 a 18:00 en mm
DESCASC
Precipitaciones de 18:00 a 24:00 en mm
DESCASC
23-06-2019 24.4 (14:20) 17.9 (06:40) 21.1 9.17 (02:00) 6.11 (01:40) 0 0 0 0 0
22-06-2019 21.6 (15:40) 17.3 (04:50) 19.4 11.39 (15:40) 7.22 (09:50) 0 0 0 0 0
21-06-2019 20.9 (12:40) 17.5 (04:50) 19.2 14.72 (16:40) 9.72 (11:40) 0 0 0 0 0
20-06-2019 22.1 (14:00) 18 (00:00) 20.1 11.67 (18:20) 7.5 (18:40) 0 0 0 0 0
19-06-2019 23.3 (15:40) 17.4 (00:00) 20.3 9.17 (15:00) 6.11 (17:20) 0 0 0 0 0
18-06-2019 23.6 (12:20) 16 (00:00) 19.8 7.22 (12:30) 4.44 (13:50) 0 0 0 0 0
17-06-2019 22.7 (19:10) 14.7 (00:00) 18.7 7.22 (14:50) 3.89 (19:20) 0 0 0 0 0
16-06-2019 21.3 (15:20) 14 (00:00) 17.6 7.78 (10:50) 5 (15:40) 0 0 0 0 0
15-06-2019 21 (15:10) 15.6 (00:00) 18.3 10.28 (13:40) 6.67 (13:20) 0 0 0 0 0
14-06-2019 21.2 (16:20) 15 (00:00) 18.1 11.39 (17:40) 6.11 (15:50) 0 0 0 0 0
13-06-2019 20.4 (16:20) 15.9 (00:00) 18.1 9.72 (04:30) 6.67 (04:30) 0 0 0 0 0
12-06-2019 19.1 (16:00) 16 (00:00) 17.6 13.06 (00:40) 8.89 (17:20) 0 0 0 0 0
11-06-2019 20.5 (15:00) 16.5 (00:00) 18.5 14.44 (19:40) 10.28 (16:20) 0 0 0 0 0
10-06-2019 20.5 (16:00) 16.6 (00:00) 18.6 14.72 (19:30) 10 (19:40) 0 0 0 0 0
09-06-2019 20.2 (14:10) 16.1 (00:00) 18.2 15 (18:10) 10 (17:40) 0 0 0 0 0
08-06-2019 21 (13:20) 16 (00:00) 18.5 12.78 (16:40) 8.33 (17:30) 0 0 0 0 0
07-06-2019 21 (14:50) 16.1 (00:00) 18.6 12.78 (00:40) 7.5 (11:50) 0 0 0 0 0
06-06-2019 19.7 (17:10) 16.3 (00:00) 18 12.22 (03:30) 8.61 (16:40) 0 0 0 0 0
05-06-2019 21.3 (12:00) 16.8 (00:00) 19 13.89 (19:50) 9.17 (19:00) 0 0 0 0 0
04-06-2019 22.1 (13:10) 17.3 (00:00) 19.7 10.83 (12:40) 7.5 (15:30) 0 0 0 0 0
03-06-2019 24.9 (14:40) 17.6 (00:00) 21.3 12.22 (03:30) 7.78 (03:20) 0 0 0 0 0
02-06-2019 27.8 (15:40) 17.1 (00:00) 22.4 16.67 (18:20) 10 (18:30) 0 0 0 0 0
01-06-2019 29.9 (17:40) 16.8 (00:00) 23.3 8.33 (12:20) 5.28 (22:30) 0 0 0 0 0
31-05-2019 21.4 (14:50) 16 (00:00) 18.7 7.78 (18:10) 5 (18:50) 0 0 0 0 0
30-05-2019 20.7 (14:20) 15.6 (00:00) 18.2 8.89 (18:30) 5.28 (16:00) 0 0 0 0 0
29-05-2019 20 (14:40) 15.6 (00:00) 17.8 9.17 (00:20) 5.83 (02:40) 0 0 0 0 0
28-05-2019 19.2 (14:40) 16.1 (00:00) 17.7 12.22 (01:10) 7.22 (01:40) 0 0 0 0 0

Gráficas

Temp. máximas Temp. mínimas Temp. medias Precipitaciones Rachas de viento máximas Velocidades máximas media en intervalos de 10 minutos

Datos horarios

Fecha y hora oficial Temperatura (ºC) Velocidad del viento (km/h) Dirección del viento Racha (km/h) Dirección de racha Precipitación (mm) Presión (hPa) Tendencia (hPa) Humedad (%)
2019-06-26 23:00:00 -- -- -- -- -- -- -- -- --
2019-06-26 22:00:00 -- -- -- -- -- -- -- -- --
2019-06-26 21:00:00 -- -- -- -- -- -- -- -- --
2019-06-26 20:00:00 20.2 22 Norte 32 Noroeste 0 -- -- 66
2019-06-26 19:00:00 20.7 20 Norte 36 Norte 0 -- -- 69
2019-06-26 18:00:00 21.1 21 Norte 37 Noroeste 0 -- -- 70
2019-06-26 17:00:00 21.7 21 Norte 36 Norte 0 -- -- 64
2019-06-26 16:00:00 22.6 20 Norte 35 Noroeste 0 -- -- 56
2019-06-26 15:00:00 22.5 22 Norte 32 Norte 0 -- -- 59
2019-06-26 14:00:00 22.4 17 Norte 30 Norte 0 -- -- 62
2019-06-26 13:00:00 21.8 18 Norte 30 Norte 0 -- -- 65
2019-06-26 12:00:00 22 21 Norte 39 Norte 0 -- -- 61
2019-06-26 11:00:00 21.5 21 Norte 30 Norte 0 -- -- 63
2019-06-26 10:00:00 20.3 18 Norte 30 Norte 0 -- -- 76
2019-06-26 09:00:00 19.8 20 Norte 40 Norte 0 -- -- 75
2019-06-26 08:00:00 18.9 21 Norte 31 Norte 0 -- -- 82
2019-06-26 07:00:00 18.8 18 Norte 30 Norte 0 -- -- 88
2019-06-26 06:00:00 18.9 19 Norte 28 Norte 0 -- -- 90
2019-06-26 05:00:00 19 17 Norte 28 Norte 0 -- -- 91
2019-06-26 04:00:00 19.1 20 Norte 30 Norte 0 -- -- 91
2019-06-26 03:00:00 19.5 14 Norte 23 Noroeste 0 -- -- 92
2019-06-26 02:00:00 19.5 12 Noroeste 27 Norte 0 -- -- 92
2019-06-26 01:00:00 19.7 12 Noroeste 27 Noroeste 0 -- -- 91
2019-06-26 00:00:00 19.9 18 Noroeste 27 Noroeste 0 -- -- 90
2019-06-25 23:00:00 20.1 17 Noroeste 27 Noroeste 0 -- -- 87
2019-06-25 22:00:00 20.3 18 Noroeste 27 Noroeste 0 -- -- 85
2019-06-25 21:00:00 20.7 16 Noroeste 24 Noroeste 0 -- -- 82
2019-06-25 20:00:00 21.8 18 Noroeste 28 Noroeste 0 -- -- 73
2019-06-25 19:00:00 22.7 19 Noroeste 32 Oeste 0 -- -- 72
2019-06-25 18:00:00 23.3 22 Oeste 36 Oeste 0 -- -- 66
2019-06-25 17:00:00 24.9 21 Oeste 35 Oeste 0 -- -- 62
2019-06-25 16:00:00 23.7 20 Noroeste 32 Oeste 0 -- -- 71
2019-06-25 15:00:00 24.7 21 Oeste 33 Oeste 0 -- -- 66
2019-06-25 14:00:00 23.7 15 Oeste 26 Oeste 0 -- -- 69
2019-06-25 13:00:00 22.3 15 Noroeste 27 Noroeste 0 -- -- 79
2019-06-25 12:00:00 22.4 20 Noroeste 31 Oeste 0 -- -- 83
2019-06-25 11:00:00 22.3 10 Oeste 23 Noroeste 0 -- -- 83
2019-06-25 10:00:00 21.2 10 Noroeste 17 Noroeste 0 -- -- 88
2019-06-25 09:00:00 20.3 8 Oeste 15 Oeste 0 -- -- 89
2019-06-25 08:00:00 18.9 3 Oeste 4 Oeste 0 -- -- 93
2019-06-25 07:00:00 17.8 3 Oeste 10 Oeste 0 -- -- 93
2019-06-25 06:00:00 18 5 Sudoeste 8 Sudoeste 0 -- -- 92
2019-06-25 05:00:00 18.4 6 Oeste 8 Oeste 0 -- -- 91
2019-06-25 04:00:00 18.5 5 Oeste 7 Oeste 0 -- -- 89
2019-06-25 03:00:00 18.8 4 Oeste 9 Oeste 0 -- -- 90
2019-06-25 02:00:00 19.1 3 Oeste 11 Noroeste 0 -- -- 90
2019-06-25 01:00:00 19.4 8 Noroeste 13 Noroeste 0 -- -- 90
2019-06-25 00:00:00 19.8 10 Noroeste 15 Oeste 0 -- -- 88
2019-06-24 23:00:00 20.1 11 Noroeste 18 Oeste 0 -- -- 85
2019-06-24 22:00:00 20.4 12 Oeste 23 Oeste 0 -- -- 83
2019-06-24 21:00:00 20.9 17 Noroeste 25 Noroeste 0 -- -- 81
2019-06-24 20:00:00 22.2 17 Oeste 28 Oeste 0 -- -- 75
2019-06-24 19:00:00 23.6 21 Noroeste 31 Oeste 0 -- -- 67
2019-06-24 18:00:00 24.2 20 Oeste 31 Oeste 0 -- -- 62
2019-06-24 17:00:00 25 21 Oeste 34 Noroeste 0 -- -- 59
2019-06-24 16:00:00 24.8 20 Noroeste 36 Noroeste 0 -- -- 63
2019-06-24 15:00:00 24.4 21 Noroeste 31 Oeste 0 -- -- 67
2019-06-24 14:00:00 24.2 18 Noroeste 28 Oeste 0 -- -- 64
2019-06-24 13:00:00 22.6 15 Oeste 24 Oeste 0 -- -- 75
2019-06-24 12:00:00 21 12 Noroeste 19 Noroeste 0 -- -- 86
2019-06-24 11:00:00 20.6 13 Noroeste 21 Oeste 0 -- -- 92
2019-06-24 10:00:00 20.5 9 Oeste 19 Oeste 0 -- -- 91
2019-06-24 09:00:00 21 14 Oeste 21 Noroeste 0 -- -- 85
2019-06-24 08:00:00 20 8 Oeste 13 Oeste 0 -- -- 91
2019-06-24 07:00:00 19.6 7 Oeste 12 Oeste 0 -- -- 92
2019-06-24 06:00:00 19.3 6 Oeste 9 Sudoeste 0 -- -- 92
2019-06-24 05:00:00 18.8 5 Oeste 13 Oeste 0 -- -- 90
2019-06-24 04:00:00 19.2 6 Noroeste 15 Noroeste 0 -- -- 90
2019-06-24 03:00:00 19.3 9 Noroeste 13 Oeste 0 -- -- 89
2019-06-24 02:00:00 19.5 4 Noroeste 10 Noroeste 0 -- -- 90
2019-06-24 01:00:00 19.5 7 Noroeste 12 Noroeste 0 -- -- 89
2019-06-24 00:00:00 19.4 6 Noroeste 14 Noroeste 0 -- -- 88
2019-06-23 23:00:00 19.4 7 Noroeste 14 Noroeste 0 -- -- 87
2019-06-23 22:00:00 19.9 10 Noroeste 16 Noroeste 0 -- -- 85
2019-06-23 21:00:00 20.1 12 Noroeste 20 Norte 0 -- -- 83
2019-06-23 20:00:00 20.7 11 Noroeste 21 Noroeste 0 -- -- 80
2019-06-23 19:00:00 22.2 14 Noroeste 26 Noroeste 0 -- -- 73
2019-06-23 18:00:00 23.2 17 Noroeste 27 Noroeste 0 -- -- 68
2019-06-23 17:00:00 23.8 18 Noroeste 28 Noroeste 0 -- -- 64
2019-06-23 16:00:00 24.4 18 Noroeste 28 Oeste 0 -- -- 61
2019-06-23 15:00:00 23.6 17 Noroeste 28 Noroeste 0 -- -- 63
2019-06-23 14:00:00 23.5 11 Norte 22 Noroeste 0 -- -- 60
2019-06-23 13:00:00 23.2 12 Noroeste 24 Noroeste 0 -- -- 61
2019-06-23 12:00:00 22.1 12 Noroeste 22 Norte 0 -- -- 68
2019-06-23 11:00:00 21.2 12 Norte 21 Noroeste 0 -- -- 73
2019-06-23 10:00:00 20 15 Norte 24 Noroeste 0 -- -- 80
2019-06-23 09:00:00 18.6 14 Noroeste 25 Noroeste 0 -- -- 89
2019-06-23 08:00:00 18.1 12 Noroeste 24 Noroeste 0 -- -- 93
2019-06-23 07:00:00 17.9 15 Noroeste 25 Norte 0 -- -- 93
2019-06-23 06:00:00 18 14 Noroeste 29 Norte 0 -- -- 93
2019-06-23 05:00:00 18.2 15 Norte 26 Norte 0 -- -- 93
2019-06-23 04:00:00 18.1 19 Noroeste 31 Noroeste 0 -- -- 92
2019-06-23 03:00:00 18.1 17 Noroeste 31 Noroeste 0 -- -- 91
2019-06-23 02:00:00 18 19 Noroeste 33 Norte 0 -- -- 90
2019-06-23 01:00:00 18 20 Noroeste 30 Noroeste 0 -- -- 89
2019-06-23 00:00:00 18.1 21 Noroeste 31 Noroeste 0 -- -- 87
2019-06-22 23:00:00 18.2 16 Noroeste 29 Norte 0 -- -- 87
2019-06-22 22:00:00 18.2 20 Noroeste 31 Noroeste 0 -- -- 84
2019-06-22 21:00:00 18.3 21 Noroeste 33 Noroeste 0 -- -- 83
2019-06-22 20:00:00 19 19 Norte 33 Noroeste 0 -- -- 76
2019-06-22 19:00:00 19.5 19 Norte 38 Norte 0 -- -- 74
2019-06-22 18:00:00 20.2 22 Noroeste 39 Noroeste 0 -- -- 72
2019-06-22 17:00:00 20.3 21 Norte 36 Noroeste 0 -- -- 68
2019-06-22 16:00:00 21 23 Noroeste 41 Noroeste 0 -- -- 65
2019-06-22 15:00:00 21.4 21 Noroeste 40 Noroeste 0 -- -- 63
2019-06-22 14:00:00 20.7 24 Norte 36 Norte 0 -- -- 64
2019-06-22 13:00:00 20.7 20 Noroeste 36 Norte 0 -- -- 64
2019-06-22 12:00:00 20.1 23 Norte 37 Norte 0 -- -- 65
2019-06-22 11:00:00 19.7 23 Norte 38 Norte 0 -- -- 67
2019-06-22 10:00:00 18.7 22 Norte 37 Norte 0 -- -- 70
2019-06-22 09:00:00 18.2 22 Norte 31 Norte 0 -- -- 74
2019-06-22 08:00:00 17.8 18 Norte 32 Norte 0 -- -- 77
2019-06-22 07:00:00 17.5 17 Norte 31 Norte 0 -- -- 75
2019-06-22 06:00:00 17.5 19 Norte 33 Norte 0 -- -- 75
2019-06-22 05:00:00 17.4 22 Norte 32 Norte 0 -- -- 75
2019-06-22 04:00:00 17.6 22 Norte 34 Norte 0 -- -- 77
2019-06-22 03:00:00 17.5 22 Norte 35 Norte 0 -- -- 80
2019-06-22 02:00:00 17.6 15 Norte 35 Norte 0 -- -- 84
2019-06-22 01:00:00 17.6 22 Norte 36 Norte 0 -- -- 84
2019-06-22 00:00:00 17.7 22 Norte 37 Norte 0 -- -- 83
2019-06-21 23:00:00 17.9 23 Norte 39 Norte 0 -- -- 82
2019-06-21 22:00:00 18 22 Norte 38 Norte 0 -- -- 82
2019-06-21 21:00:00 18.3 24 Norte 42 Norte 0 -- -- 79
2019-06-21 20:00:00 19.1 27 Norte 40 Norte 0 -- -- 71
2019-06-21 19:00:00 19.5 24 Norte 44 Norte 0 -- -- 79
2019-06-21 18:00:00 20 28 Norte 44 Norte 0 -- -- 77
2019-06-21 17:00:00 20.5 28 Norte 53 Noroeste 0 -- -- 73
2019-06-21 16:00:00 20.7 25 Norte 40 Norte 0 -- -- 72
2019-06-21 15:00:00 20.4 24 Norte 41 Norte 0 -- -- 71
2019-06-21 14:00:00 20.4 26 Norte 41 Norte 0 -- -- 69
2019-06-21 13:00:00 20.6 26 Norte 42 Norte 0 -- -- 69
2019-06-21 12:00:00 19.6 30 Norte 48 Norte 0 -- -- 72
2019-06-21 11:00:00 19.2 29 Norte 39 Norte 0 -- -- 76
2019-06-21 10:00:00 18.4 26 Norte 40 Norte 0 -- -- 85
2019-06-21 09:00:00 17.7 23 Norte 37 Norte 0 -- -- 90
2019-06-21 08:00:00 17.9 23 Norte 35 Norte 0 -- -- 87
2019-06-21 07:00:00 17.8 24 Norte 41 Norte 0 -- -- 86
2019-06-21 06:00:00 17.6 22 Norte 33 Norte 0 -- -- 86
2019-06-21 05:00:00 17.5 17 Norte 33 Norte 0 -- -- 85
2019-06-21 04:00:00 17.8 19 Norte 32 Norte 0 -- -- 87
2019-06-21 03:00:00 17.8 22 Norte 35 Norte 0 -- -- 85
2019-06-21 02:00:00 17.8 21 Norte 35 Norte 0 -- -- 84
2019-06-21 01:00:00 17.9 22 Norte 34 Norte 0 -- -- 84
2019-06-21 00:00:00 18.1 24 Norte 39 Norte 0 -- -- 81
2019-06-20 23:00:00 18.3 26 Norte 38 Norte 0 -- -- 85
2019-06-20 22:00:00 18.4 23 Norte 37 Norte 0 -- -- 82
2019-06-20 21:00:00 18.7 23 Norte 41 Norte 0 -- -- 82
2019-06-20 20:00:00 19.1 27 Norte 40 Noroeste 0 -- -- 78
2019-06-20 19:00:00 19.6 27 Norte 42 Norte 0 -- -- 78
2019-06-20 18:00:00 20.6 26 Norte 39 Norte 0 -- -- 74
2019-06-20 17:00:00 20.8 23 Norte 38 Noroeste 0 -- -- 72
2019-06-20 16:00:00 21.6 24 Norte 36 Norte 0 -- -- 70
2019-06-20 15:00:00 21.5 24 Norte 36 Norte 0 -- -- 69
2019-06-20 14:00:00 22.1 19 Norte 32 Norte 0 -- -- 67
2019-06-20 13:00:00 20.7 21 Norte 39 Noroeste 0 -- -- 76
2019-06-20 12:00:00 20.8 19 Norte 31 Norte 0 -- -- 75
2019-06-20 11:00:00 20.1 19 Norte 30 Noroeste 0 -- -- 79
2019-06-20 10:00:00 19.1 21 Norte 33 Noroeste 0 -- -- 83
2019-06-20 09:00:00 18.7 20 Norte 29 Norte 0 -- -- 85
2019-06-20 08:00:00 18.2 20 Norte 27 Norte 0 -- -- 89
2019-06-20 07:00:00 18.1 13 Norte 25 Norte 0 -- -- 90
2019-06-20 06:00:00 18 14 Norte 30 Norte 0 -- -- 89
2019-06-20 05:00:00 18.2 17 Noroeste 28 Norte 0 -- -- 90
2019-06-20 04:00:00 18.2 16 Norte 30 Norte 0 -- -- 90
2019-06-20 03:00:00 18.2 16 Noroeste 31 Noroeste 0 -- -- 88
2019-06-20 02:00:00 18.2 18 Norte 27 Norte 0 -- -- 87
2019-06-20 01:00:00 18.4 17 Norte 28 Norte 0 -- -- 87
2019-06-20 00:00:00 18.5 18 Norte 27 Norte 0 -- -- 85
2019-06-19 23:00:00 18.8 16 Norte 28 Noroeste 0 -- -- 85
2019-06-19 22:00:00 18.9 13 Norte 26 Noroeste 0 -- -- 84
2019-06-19 21:00:00 19.4 17 Norte 26 Noroeste 0 -- -- 82
2019-06-19 20:00:00 20.3 17 Norte 30 Noroeste 0 -- -- 79
2019-06-19 19:00:00 21.1 20 Noroeste 30 Noroeste 0 -- -- 76
2019-06-19 18:00:00 22.4 20 Noroeste 30 Noroeste 0 -- -- 68
2019-06-19 17:00:00 22.5 18 Noroeste 30 Noroeste 0 -- -- 65
2019-06-19 16:00:00 23.3 16 Norte 30 Noroeste 0 -- -- 58
2019-06-19 15:00:00 23 18 Noroeste 33 Norte 0 -- -- 60
2019-06-19 14:00:00 22.8 15 Noroeste 26 Noroeste 0 -- -- 59
2019-06-19 13:00:00 22.1 13 Norte 24 Norte 0 -- -- 59
2019-06-19 12:00:00 21.3 15 Norte 24 Noroeste 0 -- -- 69
2019-06-19 11:00:00 20.1 14 Norte 22 Norte 0 -- -- 77
2019-06-19 10:00:00 19.3 11 Norte 18 Norte 0 -- -- 79
2019-06-19 09:00:00 18.4 11 Norte 17 Norte 0 -- -- 86
2019-06-19 08:00:00 17.8 8 Norte 15 Noroeste 0 -- -- 91
2019-06-19 07:00:00 17.4 8 Norte 17 Norte 0 -- -- 91
2019-06-19 06:00:00 17.6 9 Norte 22 Norte 0 -- -- 90
2019-06-19 05:00:00 17.9 12 Norte 19 Norte 0 -- -- 90
2019-06-19 04:00:00 18.1 9 Norte 20 Noroeste 0 -- -- 91
2019-06-19 03:00:00 18.5 11 Norte 21 Norte 0 -- -- 92
2019-06-19 02:00:00 18.6 10 Noroeste 18 Noroeste 0 -- -- 92
2019-06-19 01:00:00 18.8 9 Noroeste 17 Noroeste 0 -- -- 92
2019-06-19 00:00:00 19.1 10 Noroeste 22 Noroeste 0 -- -- 90
2019-06-18 23:00:00 19.2 11 Noroeste 17 Noroeste 0 -- -- 89
2019-06-18 22:00:00 19.5 10 Noroeste 17 Noroeste 0 -- -- 82
2019-06-18 21:00:00 20.4 10 Noroeste 16 Noroeste 0 -- -- 76
2019-06-18 20:00:00 21.8 9 Noroeste 18 Noroeste 0 -- -- 69
2019-06-18 19:00:00 23 11 Noroeste 21 Noroeste 0 -- -- 63
2019-06-18 18:00:00 23 11 Noroeste 21 Norte 0 -- -- 60
2019-06-18 17:00:00 -- -- -- -- -- -- -- -- --
2019-06-18 16:00:00 22.3 12 Norte 24 Noroeste 0 -- -- 76
2019-06-18 15:00:00 23.3 13 Noroeste 22 Noroeste 0 -- -- 68
2019-06-18 14:00:00 23.1 15 Noroeste 22 Noroeste 0 -- -- 66
2019-06-18 13:00:00 23.3 12 Noroeste 26 Noroeste 0 -- -- 64
2019-06-18 12:00:00 22.6 9 Noroeste 19 Noroeste 0 -- -- 67
2019-06-18 11:00:00 22.4 13 Noroeste 26 Noroeste 0 -- -- 65
2019-06-18 10:00:00 21.4 10 Noroeste 23 Noroeste 0 -- -- 66
2019-06-18 09:00:00 19.7 11 Noroeste 17 Noroeste 0 -- -- 78
2019-06-18 08:00:00 18 8 Oeste 10 Noroeste 0 -- -- 88
2019-06-18 07:00:00 16.7 6 Oeste 10 Oeste 0 -- -- 89
2019-06-18 06:00:00 16.5 7 Oeste 9 Oeste 0 -- -- 90
2019-06-18 05:00:00 16.5 4 Sudoeste 6 Oeste 0 -- -- 86
2019-06-18 04:00:00 16.8 5 Oeste 6 Oeste 0 -- -- 86
2019-06-18 03:00:00 16.8 2 Oeste 6 Oeste 0 -- -- 82
2019-06-18 02:00:00 17.2 5 Oeste 7 Oeste 0 -- -- 80
2019-06-18 01:00:00 17.3 5 Oeste 6 Oeste 0 -- -- 81
2019-06-18 00:00:00 17.9 4 Noroeste 8 Noroeste 0 -- -- 81
2019-06-17 23:00:00 18.1 6 Noroeste 10 Noroeste 0 -- -- 79
2019-06-17 22:00:00 18.3 5 Noroeste 9 Noroeste 0 -- -- 77
2019-06-17 21:00:00 19.4 9 Noroeste 19 Noroeste 0 -- -- 69
2019-06-17 20:00:00 20.9 13 Noroeste 19 Noroeste 0 -- -- 64
2019-06-17 19:00:00 22.6 12 Noroeste 25 Noroeste 0 -- -- 43
2019-06-17 18:00:00 21.8 10 Norte 22 Noroeste 0 -- -- 55
2019-06-17 17:00:00 21.8 14 Norte 21 Noroeste 0 -- -- 56
2019-06-17 16:00:00 22.2 13 Norte 24 Noroeste 0 -- -- 56
2019-06-17 15:00:00 22.2 12 Norte 26 Norte 0 -- -- 58
2019-06-17 14:00:00 21.9 10 Norte 22 Noroeste 0 -- -- 58
2019-06-17 13:00:00 21.6 13 Norte 21 Norte 0 -- -- 58
2019-06-17 12:00:00 21 8 Norte 22 Norte 0 -- -- 59
2019-06-17 11:00:00 20.1 8 Norte 16 Noroeste 0 -- -- 65
2019-06-17 10:00:00 18.7 8 Noroeste 15 Norte 0 -- -- 70
2019-06-17 09:00:00 17.6 4 Norte 10 Noroeste 0 -- -- 76
2019-06-17 08:00:00 15.7 0 Calma 4 Sudoeste 0 -- -- 84
2019-06-17 07:00:00 14.9 0 Calma 6 Norte 0 -- -- 84
2019-06-17 06:00:00 15.3 3 Norte 10 Noroeste 0 -- -- 84
2019-06-17 05:00:00 14.9 3 Norte 8 Oeste 0 -- -- 84
2019-06-17 04:00:00 14.9 0 Calma 6 Nordeste 0 -- -- 84
2019-06-17 03:00:00 15.4 0 Calma 13 Nordeste 0 -- -- 82
2019-06-17 02:00:00 15.8 5 Nordeste 18 Norte 0 -- -- 82
2019-06-17 01:00:00 16 7 Nordeste 14 Norte 0 -- -- 82
2019-06-17 00:00:00 16.3 6 Norte 14 Norte 0 -- -- 81
2019-06-16 23:00:00 16.8 10 Norte 15 Norte 0 -- -- 79
2019-06-16 22:00:00 17 9 Norte 18 Nordeste 0 -- -- 77
2019-06-16 21:00:00 17.6 15 Norte 23 Norte 0 -- -- 74
2019-06-16 20:00:00 18.7 13 Norte 23 Norte 0 -- -- 68
2019-06-16 19:00:00 19.5 16 Norte 27 Norte 0 -- -- 65
2019-06-16 18:00:00 20.1 17 Norte 28 Norte 0 -- -- 60
2019-06-16 17:00:00 20.8 15 Norte 28 Norte 0 -- -- 57
2019-06-16 16:00:00 21.3 17 Norte 28 Nordeste 0 -- -- 54
2019-06-16 15:00:00 20.8 17 Norte 28 Norte 0 -- -- 54
2019-06-16 14:00:00 20.5 15 Norte 28 Norte 0 -- -- 56
2019-06-16 13:00:00 20.4 15 Norte 27 Nordeste 0 -- -- 56
2019-06-16 12:00:00 19.1 16 Norte 26 Norte 0 -- -- 66
2019-06-16 11:00:00 18.6 15 Norte 28 Noroeste 0 -- -- 69
2019-06-16 10:00:00 17.9 13 Norte 24 Norte 0 -- -- 71
2019-06-16 09:00:00 17.9 14 Nordeste 21 Nordeste 0 -- -- 65
2019-06-16 08:00:00 16.4 8 Norte 14 Norte 0 -- -- 75
2019-06-16 07:00:00 16 8 Norte 17 Norte 0 -- -- 79
2019-06-16 06:00:00 15.2 4 Norte 7 Norte 0 -- -- 82
2019-06-16 05:00:00 14 0 Calma 5 Norte 0 -- -- 82
2019-06-16 04:00:00 14.4 0 Calma 11 Norte 0 -- -- 80
2019-06-16 03:00:00 15.7 8 Nordeste 12 Norte 0 -- -- 76
2019-06-16 02:00:00 15.5 0 Calma 17 Nordeste 0 -- -- 76
2019-06-16 01:00:00 16.3 11 Nordeste 20 Nordeste 0 -- -- 74
2019-06-16 00:00:00 16.1 8 Norte 21 Norte 0 -- -- 76
2019-06-15 23:00:00 16.7 13 Norte 22 Norte 0 -- -- 74
2019-06-15 22:00:00 16.9 15 Norte 23 Norte 0 -- -- 73
2019-06-15 21:00:00 17.2 17 Norte 26 Norte 0 -- -- 72
2019-06-15 20:00:00 18.2 20 Norte 30 Norte 0 -- -- 66
2019-06-15 19:00:00 19.5 19 Norte 33 Norte 0 -- -- 61
2019-06-15 18:00:00 20 18 Norte 32 Norte 0 -- -- 61
2019-06-15 17:00:00 20.1 19 Norte 33 Norte 0 -- -- 61
2019-06-15 16:00:00 19.9 19 Norte 34 Norte 0 -- -- 60
2019-06-15 15:00:00 20.9 19 Norte 37 Norte 0 -- -- 55
2019-06-15 14:00:00 20.4 20 Norte 37 Noroeste 0 -- -- 52
2019-06-15 13:00:00 20.4 19 Norte 37 Nordeste 0 -- -- 55
2019-06-15 12:00:00 19.8 21 Norte 34 Nordeste 0 -- -- 58
2019-06-15 11:00:00 19.3 20 Norte 36 Nordeste 0 -- -- 56
2019-06-15 10:00:00 18 19 Nordeste 32 Nordeste 0 -- -- 60
2019-06-15 09:00:00 17.1 17 Nordeste 31 Nordeste 0 -- -- 71
2019-06-15 08:00:00 16.4 16 Nordeste 26 Nordeste 0 -- -- 77
2019-06-15 07:00:00 15.9 15 Nordeste 31 Nordeste 0 -- -- 78
2019-06-15 06:00:00 16.2 18 Nordeste 31 Norte 0 -- -- 77
2019-06-15 05:00:00 16.3 14 Norte 28 Norte 0 -- -- 82
2019-06-15 04:00:00 16.3 9 Nordeste 21 Norte 0 -- -- 78
2019-06-15 03:00:00 16.1 13 Nordeste 23 Nordeste 0 -- -- 78
2019-06-15 02:00:00 16.4 14 Nordeste 27 Nordeste 0 -- -- 74
2019-06-15 01:00:00 16.5 12 Nordeste 32 Nordeste 0 -- -- 77
2019-06-15 00:00:00 16.9 13 Nordeste 27 Este 0 -- -- 77
2019-06-14 23:00:00 16.9 8 Nordeste 16 Norte 0 -- -- 76
2019-06-14 22:00:00 16.9 9 Norte 25 Norte 0 -- -- 76
2019-06-14 21:00:00 17.4 16 Norte 30 Norte 0 -- -- 71
2019-06-14 20:00:00 18.5 19 Norte 27 Norte 0 -- -- 62
2019-06-14 19:00:00 19.3 19 Norte 31 Norte 0 -- -- 57
2019-06-14 18:00:00 20.1 19 Norte 41 Norte 0 -- -- 52
2019-06-14 17:00:00 20.5 22 Norte 33 Nordeste 0 -- -- 46
2019-06-14 16:00:00 21.1 21 Nordeste 39 Nordeste 0 -- -- 49
2019-06-14 15:00:00 20.7 19 Norte 31 Norte 0 -- -- 48
2019-06-14 14:00:00 19.6 19 Norte 36 Nordeste 0 -- -- 56
2019-06-14 13:00:00 19.8 19 Nordeste 36 Norte 0 -- -- 57
2019-06-14 12:00:00 19.2 19 Norte 27 Norte 0 -- -- 60
2019-06-14 11:00:00 19.2 13 Norte 23 Norte 0 -- -- 64
2019-06-14 10:00:00 19 14 Norte 25 Norte 0 -- -- 60
2019-06-14 09:00:00 17.1 11 Norte 18 Norte 0 -- -- 71
2019-06-14 08:00:00 15.7 10 Nordeste 20 Norte 0 -- -- 78
2019-06-14 07:00:00 15.3 7 Norte 14 Norte 0 -- -- 77
2019-06-14 06:00:00 15.4 10 Norte 19 Nordeste 0 -- -- 79
2019-06-14 05:00:00 15.3 10 Norte 19 Norte 0 -- -- 81
2019-06-14 04:00:00 15.3 7 Norte 17 Nordeste 0 -- -- 80
2019-06-14 03:00:00 16.1 11 Norte 18 Norte 0 -- -- 78
2019-06-14 02:00:00 15.7 7 Norte 15 Norte 0 -- -- 79
2019-06-14 01:00:00 16 11 Norte 19 Norte 0 -- -- 78
2019-06-14 00:00:00 16.3 11 Norte 21 Norte 0 -- -- 77
2019-06-13 23:00:00 16.5 13 Norte 23 Norte 0 -- -- 74
2019-06-13 22:00:00 16.9 13 Norte 24 Norte 0 -- -- 75
2019-06-13 21:00:00 17.2 11 Norte 22 Norte 0 -- -- 75
2019-06-13 20:00:00 17.7 15 Norte 29 Norte 0 -- -- 70
2019-06-13 19:00:00 18.6 17 Norte 30 Norte 0 -- -- 68
2019-06-13 18:00:00 19.7 19 Norte 29 Norte 0 -- -- 61
2019-06-13 17:00:00 20.1 19 Norte 33 Noroeste 0 -- -- 63
2019-06-13 16:00:00 20.2 20 Norte 33 Norte 0 -- -- 60
2019-06-13 15:00:00 20.2 18 Norte 31 Noroeste 0 -- -- 62
2019-06-13 14:00:00 18.9 19 Norte 32 Noroeste 0 -- -- 66
2019-06-13 13:00:00 19.5 19 Norte 30 Noroeste 0 -- -- 61
2019-06-13 12:00:00 19.4 22 Norte 35 Norte 0 -- -- 62
2019-06-13 11:00:00 17.8 23 Norte 34 Norte 0 -- -- 74
2019-06-13 10:00:00 16.9 21 Norte 33 Norte 0 -- -- 79
2019-06-13 09:00:00 16.8 21 Norte 34 Norte 0 -- -- 81
2019-06-13 08:00:00 16.6 14 Norte 30 Norte 0 -- -- 79
2019-06-13 07:00:00 15.9 13 Norte 28 Norte 0 -- -- 82
2019-06-13 06:00:00 16.1 18 Norte 31 Norte 0 -- -- 82
2019-06-13 05:00:00 16.2 17 Norte 35 Norte 0 -- -- 80
2019-06-13 04:00:00 16 21 Noroeste 33 Norte 0 -- -- 79
2019-06-13 03:00:00 16.4 16 Norte 32 Norte 0 -- -- 80
2019-06-13 02:00:00 16.2 14 Norte 30 Norte 0 -- -- 78
2019-06-13 01:00:00 16.1 18 Norte 33 Norte 0 -- -- 75
2019-06-13 00:00:00 16.3 23 Norte 40 Norte 0 -- -- 74
2019-06-12 23:00:00 16.4 23 Norte 42 Norte 0 -- -- 76
2019-06-12 22:00:00 16.5 25 Norte 41 Norte 0 -- -- 73
2019-06-12 21:00:00 16.7 23 Norte 39 Norte 0 -- -- 72
2019-06-12 20:00:00 17.1 26 Norte 40 Norte 0 -- -- 71
2019-06-12 19:00:00 17.6 22 Norte 45 Noroeste 0 -- -- 72
2019-06-12 18:00:00 17.8 26 Norte 44 Norte 0 -- -- 71
2019-06-12 17:00:00 18.7 30 Norte 45 Norte 0 -- -- 64
2019-06-12 16:00:00 19.1 28 Norte 45 Noroeste 0 -- -- 62
2019-06-12 15:00:00 18.9 26 Norte 42 Norte 0 -- -- 63
2019-06-12 14:00:00 18 28 Norte 43 Norte 0 -- -- 77
2019-06-12 13:00:00 17.8 23 Norte 38 Norte 0 -- -- 85
2019-06-12 12:00:00 16.6 27 Norte 40 Norte 0 -- -- 91
2019-06-12 11:00:00 17.5 18 Norte 41 Norte 0 -- -- 86
2019-06-12 10:00:00 16.4 24 Norte 44 Norte 0 -- -- 91
2019-06-12 09:00:00 16.3 19 Norte 41 Norte 0 -- -- 95
2019-06-12 08:00:00 16.4 23 Norte 37 Norte 0 -- -- 93
2019-06-12 07:00:00 16.4 26 Norte 39 Norte 0 -- -- 91
2019-06-12 06:00:00 16.6 21 Norte 39 Norte 0 -- -- 93
2019-06-12 05:00:00 16.5 20 Norte 38 Norte 0 -- -- 94
2019-06-12 04:00:00 16.2 23 Norte 41 Norte 0 -- -- 95
2019-06-12 03:00:00 16.6 27 Norte 38 Norte 0 -- -- 90
2019-06-12 02:00:00 16.6 20 Norte 42 Norte 0 -- -- 91
2019-06-12 01:00:00 16.8 19 Norte 47 Norte 0 -- -- 93
2019-06-12 00:00:00 17.2 22 Norte 44 Noroeste 0 -- -- 86
2019-06-11 23:00:00 17.3 28 Norte 43 Norte 0 -- -- 85
2019-06-11 22:00:00 17.4 24 Norte 39 Norte 0 -- -- 85
2019-06-11 21:00:00 17.6 28 Norte 45 Norte 0 -- -- 83
2019-06-11 20:00:00 17.7 32 Norte 52 Norte 0 -- -- 83
2019-06-11 19:00:00 18.1 32 Norte 49 Norte 0 -- -- 79
2019-06-11 18:00:00 18.7 30 Norte 50 Norte 0 -- -- 77
2019-06-11 17:00:00 19.4 32 Norte 50 Norte 0 -- -- 73
2019-06-11 16:00:00 20.1 31 Norte 50 Norte 0 -- -- 67
2019-06-11 15:00:00 20.5 29 Norte 47 Norte 0 -- -- 65
2019-06-11 14:00:00 19.6 34 Norte 50 Norte 0 -- -- 68
2019-06-11 13:00:00 19.9 33 Norte 47 Norte 0 -- -- 65
2019-06-11 12:00:00 20 28 Norte 46 Norte 0 -- -- 62
2019-06-11 11:00:00 19 32 Norte 48 Norte 0 -- -- 64
2019-06-11 10:00:00 17.9 30 Norte 45 Norte 0 -- -- 66
2019-06-11 09:00:00 17.2 28 Norte 40 Norte 0 -- -- 69
2019-06-11 08:00:00 16.9 26 Norte 40 Norte 0 -- -- 78
2019-06-11 07:00:00 16.8 24 Norte 40 Norte 0 -- -- 77
2019-06-11 06:00:00 16.7 27 Norte 44 Norte 0 -- -- 76
2019-06-11 05:00:00 16.7 29 Norte 42 Norte 0 -- -- 76
2019-06-11 04:00:00 16.7 27 Norte 42 Norte 0 -- -- 79
2019-06-11 03:00:00 16.5 26 Norte 44 Norte 0 -- -- 82
2019-06-11 02:00:00 16.7 28 Norte 42 Norte 0 -- -- 83
2019-06-11 01:00:00 16.7 24 Norte 42 Norte 0 -- -- 81
2019-06-11 00:00:00 16.7 28 Norte 41 Norte 0 -- -- 82
2019-06-10 23:00:00 16.7 27 Norte 43 Norte 0 -- -- 79
2019-06-10 22:00:00 17 29 Norte 45 Norte 0 -- -- 82
2019-06-10 21:00:00 17.2 33 Norte 50 Norte 0 -- -- 80
2019-06-10 20:00:00 17.9 32 Norte 53 Norte 0 -- -- 81
2019-06-10 19:00:00 18.6 35 Norte 49 Norte 0 -- -- 73
2019-06-10 18:00:00 18.7 33 Norte 46 Norte 0 -- -- 76
2019-06-10 17:00:00 19.2 32 Norte 46 Norte 0 -- -- 76
2019-06-10 16:00:00 20.5 31 Norte 49 Norte 0 -- -- 66
2019-06-10 15:00:00 19.7 31 Norte 48 Norte 0 -- -- 70
2019-06-10 14:00:00 19.9 31 Norte 45 Norte 0 -- -- 69
2019-06-10 13:00:00 19.5 27 Norte 52 Norte 0 -- -- 72
2019-06-10 12:00:00 19.3 28 Norte 40 Norte 0 -- -- 72
2019-06-10 11:00:00 18.2 25 Norte 39 Norte 0 -- -- 77
2019-06-10 10:00:00 18 27 Norte 42 Norte 0 -- -- 77
2019-06-10 09:00:00 17.3 22 Norte 38 Norte 0 -- -- 80
2019-06-10 08:00:00 17.1 24 Norte 39 Norte 0 -- -- 76
2019-06-10 07:00:00 16.8 23 Nordeste 45 Norte 0 -- -- 77
2019-06-10 06:00:00 16.7 24 Norte 42 Norte 0 -- -- 77
2019-06-10 05:00:00 16.8 24 Norte 39 Norte 0 -- -- 77
2019-06-10 04:00:00 16.6 29 Norte 42 Norte 0 -- -- 78
2019-06-10 03:00:00 16.7 26 Norte 42 Norte 0 -- -- 79
2019-06-10 02:00:00 16.7 25 Norte 45 Norte 0 -- -- 75
2019-06-10 01:00:00 16.9 26 Nordeste 49 Nordeste 0 -- -- 77
2019-06-10 00:00:00 17.1 28 Norte 46 Nordeste 0 -- -- 77
2019-06-09 23:00:00 17.2 30 Norte 46 Norte 0 -- -- 75
2019-06-09 22:00:00 17.3 29 Norte 48 Norte 0 -- -- 74
2019-06-09 21:00:00 17.5 31 Norte 48 Norte 0 -- -- 72
2019-06-09 20:00:00 17.9 30 Norte 48 Norte 0 -- -- 70
2019-06-09 19:00:00 18.6 32 Norte 54 Nordeste 0 -- -- 66
2019-06-09 18:00:00 19.3 33 Norte 51 Norte 0 -- -- 62
2019-06-09 17:00:00 19.4 35 Norte 50 Norte 0 -- -- 59
2019-06-09 16:00:00 19.5 31 Norte 47 Norte 0 -- -- 60
2019-06-09 15:00:00 19.5 27 Norte 43 Nordeste 0 -- -- 63
2019-06-09 14:00:00 20 27 Norte 50 Nordeste 0 -- -- 57
2019-06-09 13:00:00 19.9 33 Norte 51 Norte 0 -- -- 54
2019-06-09 12:00:00 18.8 29 Nordeste 48 Norte 0 -- -- 62
2019-06-09 11:00:00 18 28 Norte 47 Norte 0 -- -- 66
2019-06-09 10:00:00 18.3 27 Norte 45 Nordeste 0 -- -- 57
2019-06-09 09:00:00 17 24 Nordeste 39 Norte 0 -- -- 65
2019-06-09 08:00:00 16.8 21 Nordeste 34 Norte 0 -- -- 69
2019-06-09 07:00:00 16.5 18 Norte 40 Nordeste 0 -- -- 69
2019-06-09 06:00:00 16.6 19 Norte 35 Nordeste 0 -- -- 75
2019-06-09 05:00:00 16.7 22 Nordeste 36 Nordeste 0 -- -- 69
2019-06-09 04:00:00 16.7 21 Norte 33 Norte 0 -- -- 72
2019-06-09 03:00:00 16.6 19 Norte 30 Norte 0 -- -- 77
2019-06-09 02:00:00 16.1 15 Norte 40 Nordeste 0 -- -- 75
2019-06-09 01:00:00 16.5 20 Norte 34 Norte 0 -- -- 76
2019-06-09 00:00:00 16.4 22 Norte 36 Norte 0 -- -- 73
2019-06-08 23:00:00 16.6 22 Norte 35 Norte 0 -- -- 75
2019-06-08 22:00:00 16.8 25 Norte 41 Norte 0 -- -- 75
2019-06-08 21:00:00 17.3 26 Norte 44 Nordeste 0 -- -- 69
2019-06-08 20:00:00 18.1 22 Norte 37 Norte 0 -- -- 69
2019-06-08 19:00:00 18.6 26 Norte 41 Nordeste 0 -- -- 66
2019-06-08 18:00:00 19.1 28 Norte 41 Norte 0 -- -- 59
2019-06-08 17:00:00 19.8 28 Norte 46 Norte 0 -- -- 61
2019-06-08 16:00:00 20.3 27 Norte 41 Norte 0 -- -- 58
2019-06-08 15:00:00 20.1 25 Norte 37 Norte 0 -- -- 63
2019-06-08 14:00:00 20.3 21 Norte 37 Norte 0 -- -- 58
2019-06-08 13:00:00 20.8 21 Nordeste 33 Norte 0 -- -- 55
2019-06-08 12:00:00 19.6 23 Norte 36 Norte 0 -- -- 60
2019-06-08 11:00:00 18.5 23 Norte 37 Norte 0 -- -- 70
2019-06-08 10:00:00 18.1 25 Norte 42 Nordeste 0 -- -- 70
2019-06-08 09:00:00 17.2 22 Nordeste 36 Norte 0 -- -- 79
2019-06-08 08:00:00 16.7 19 Norte 26 Norte 0 -- -- 85
2019-06-08 07:00:00 16 12 Norte 30 Norte 0 -- -- 89
2019-06-08 06:00:00 16.6 13 Norte 30 Nordeste 0 -- -- 89
2019-06-08 05:00:00 16.9 13 Norte 35 Norte 0 -- -- 90
2019-06-08 04:00:00 17.1 19 Norte 35 Norte 0 -- -- 91
2019-06-08 03:00:00 17.2 21 Nordeste 36 Norte 0 -- -- 92
2019-06-08 02:00:00 17.2 21 Nordeste 36 Norte 0 -- -- 92
2019-06-08 01:00:00 17.4 22 Norte 35 Norte 0 -- -- 93
2019-06-08 00:00:00 17.6 24 Norte 38 Norte 0 -- -- 91
2019-06-07 23:00:00 17.7 22 Norte 37 Norte 0 -- -- 92
2019-06-07 22:00:00 18 21 Norte 36 Noroeste 0 -- -- 90
2019-06-07 21:00:00 18.3 18 Norte 32 Noroeste 0 -- -- 89
2019-06-07 20:00:00 18.5 21 Norte 33 Norte 0 -- -- 85
2019-06-07 19:00:00 19.2 22 Norte 35 Norte 0 -- -- 80
2019-06-07 18:00:00 19.9 23 Norte 36 Norte 0 -- -- 75
2019-06-07 17:00:00 20.4 21 Norte 33 Norte 0 -- -- 68
2019-06-07 16:00:00 20.4 20 Norte 33 Noroeste 0 -- -- 72
2019-06-07 15:00:00 20.6 22 Norte 41 Nordeste 0 -- -- 67
2019-06-07 14:00:00 20.9 22 Norte 42 Nordeste 0 -- -- 63
2019-06-07 13:00:00 19.8 25 Norte 40 Norte 0 -- -- 69
2019-06-07 12:00:00 18.8 24 Norte 39 Norte 0 -- -- 69
2019-06-07 11:00:00 18.1 23 Norte 36 Norte 0 -- -- 77
2019-06-07 10:00:00 18.4 24 Norte 37 Norte 0 -- -- 72
2019-06-07 09:00:00 17.4 24 Norte 35 Norte 0 -- -- 77
2019-06-07 08:00:00 16.8 19 Norte 33 Norte 0 -- -- 78
2019-06-07 07:00:00 16.3 19 Norte 33 Norte 0 -- -- 85
2019-06-07 06:00:00 16.2 19 Norte 31 Norte 0 -- -- 87
2019-06-07 05:00:00 16.4 18 Norte 25 Norte 0 -- -- 83
2019-06-07 04:00:00 16.3 15 Norte 31 Norte 0 -- -- 80
2019-06-07 03:00:00 16.4 20 Norte 33 Norte 0 -- -- 79
2019-06-07 02:00:00 16.5 18 Norte 34 Norte 0 -- -- 78
2019-06-07 01:00:00 16.6 25 Norte 46 Norte 0 -- -- 78
2019-06-07 00:00:00 16.6 26 Norte 38 Norte 0 -- -- 77
2019-06-06 23:00:00 16.7 26 Norte 37 Norte 0 -- -- 78
2019-06-06 22:00:00 16.8 23 Norte 38 Norte 0 -- -- 75
2019-06-06 21:00:00 17 25 Norte 44 Norte 0 -- -- 73
2019-06-06 20:00:00 17.7 24 Norte 42 Norte 0 -- -- 67
2019-06-06 19:00:00 18.4 28 Norte 44 Norte 0 -- -- 67
2019-06-06 18:00:00 19.1 29 Norte 43 Norte 0 -- -- 64
2019-06-06 17:00:00 19.3 27 Norte 42 Norte 0 -- -- 58
2019-06-06 16:00:00 19.1 27 Norte 43 Norte 0 -- -- 66
2019-06-06 15:00:00 19.4 24 Norte 40 Norte 0 -- -- 63
2019-06-06 14:00:00 18.4 26 Norte 38 Norte 0 -- -- 65
2019-06-06 13:00:00 18.8 25 Norte 41 Norte 0 -- -- 63
2019-06-06 12:00:00 18.7 26 Norte 40 Norte 0 -- -- 57
2019-06-06 11:00:00 17.8 25 Norte 38 Norte 0 -- -- 62
2019-06-06 10:00:00 17.3 26 Norte 39 Norte 0 -- -- 68
2019-06-06 09:00:00 17.6 22 Norte 39 Norte 0 -- -- 61
2019-06-06 08:00:00 16.9 23 Norte 36 Norte 0 -- -- 74
2019-06-06 07:00:00 16.6 22 Norte 37 Norte 0 -- -- 74
2019-06-06 06:00:00 16.6 20 Norte 35 Nordeste 0 -- -- 75
2019-06-06 05:00:00 16.7 22 Norte 39 Nordeste 0 -- -- 75
2019-06-06 04:00:00 16.5 22 Norte 44 Norte 0 -- -- 71
2019-06-06 03:00:00 16.9 24 Nordeste 41 Nordeste 0 -- -- 76
2019-06-06 02:00:00 16.9 21 Nordeste 40 Norte 0 -- -- 78
2019-06-06 01:00:00 16.6 19 Norte 35 Norte 0 -- -- 76
2019-06-06 00:00:00 16.8 19 Norte 35 Norte 0 -- -- 78
2019-06-05 23:00:00 17 20 Norte 31 Norte 0 -- -- 80
2019-06-05 22:00:00 17.2 20 Norte 38 Norte 0 -- -- 83
2019-06-05 21:00:00 17.7 26 Norte 48 Nordeste 0 -- -- 81
2019-06-05 20:00:00 18.2 31 Nordeste 50 Nordeste 0 -- -- 79
2019-06-05 19:00:00 18.7 33 Norte 48 Nordeste 0 -- -- 80
2019-06-05 18:00:00 19.1 31 Norte 44 Norte 0 -- -- 81
2019-06-05 17:00:00 20.4 24 Norte 36 Norte 0 -- -- 79
2019-06-05 16:00:00 20.5 24 Norte 36 Norte 0 -- -- 77
2019-06-05 15:00:00 20.8 21 Norte 35 Norte 0 -- -- 74
2019-06-05 14:00:00 20.3 18 Norte 28 Norte 0 -- -- 76
2019-06-05 13:00:00 20.2 20 Norte 35 Nordeste 0 -- -- 75
2019-06-05 12:00:00 21.3 21 Norte 35 Norte 0 -- -- 70
2019-06-05 11:00:00 20.2 21 Nordeste 41 Nordeste 0 -- -- 73
2019-06-05 10:00:00 18.7 22 Norte 35 Norte 0 -- -- 81
2019-06-05 09:00:00 18 24 Norte 36 Norte 0 -- -- 88
2019-06-05 08:00:00 17.5 20 Norte 33 Norte 0 -- -- 92
2019-06-05 07:00:00 17.3 18 Norte 32 Norte 0 -- -- 92
2019-06-05 06:00:00 17.5 21 Norte 34 Norte 0 -- -- 92
2019-06-05 05:00:00 17.5 22 Norte 34 Norte 0 -- -- 92
2019-06-05 04:00:00 17.5 22 Norte 31 Norte 0 -- -- 91
2019-06-05 03:00:00 17.6 20 Norte 35 Norte 0 -- -- 91
2019-06-05 02:00:00 17.7 21 Norte 30 Norte 0 -- -- 92
2019-06-05 01:00:00 17.7 20 Norte 34 Norte 0 -- -- 90
2019-06-05 00:00:00 17.7 23 Norte 33 Norte 0 -- -- 90
2019-06-04 23:00:00 17.8 21 Norte 33 Noroeste 0 -- -- 90
2019-06-04 22:00:00 17.8 21 Norte 30 Norte 0 -- -- 89
2019-06-04 21:00:00 18 21 Norte 32 Norte 0 -- -- 86
2019-06-04 20:00:00 18.6 27 Norte 36 Norte 0 -- -- 82
2019-06-04 19:00:00 19.3 24 Norte 32 Norte 0 -- -- 78
2019-06-04 18:00:00 20.6 22 Norte 36 Norte 0 -- -- 72
2019-06-04 17:00:00 20.7 24 Norte 37 Norte 0 -- -- 71
2019-06-04 16:00:00 21.5 25 Norte 38 Norte 0 -- -- 70
2019-06-04 15:00:00 21.5 26 Norte 37 Nordeste 0 -- -- 70
2019-06-04 14:00:00 21.4 23 Norte 36 Nordeste 0 -- -- 73
2019-06-04 13:00:00 21.8 21 Norte 39 Norte 0 -- -- 71
2019-06-04 12:00:00 21.2 17 Norte 29 Norte 0 -- -- 74
2019-06-04 11:00:00 20.7 18 Norte 31 Nordeste 0 -- -- 75
2019-06-04 10:00:00 20.3 17 Nordeste 27 Nordeste 0 -- -- 73
2019-06-04 09:00:00 18.9 14 Norte 25 Norte 0 -- -- 86
2019-06-04 08:00:00 17.6 12 Nordeste 21 Norte 0 -- -- 91
2019-06-04 07:00:00 17.4 10 Norte 21 Norte 0 -- -- 93
2019-06-04 06:00:00 17.5 9 Norte 25 Norte 0 -- -- 92
2019-06-04 05:00:00 17.5 14 Norte 32 Norte 0 -- -- 92
2019-06-04 04:00:00 17.7 15 Norte 25 Norte 0 -- -- 93
2019-06-04 03:00:00 17.7 15 Norte 24 Norte 0 -- -- 92
2019-06-04 02:00:00 17.9 14 Norte 24 Nordeste 0 -- -- 92
2019-06-04 01:00:00 18 14 Norte 26 Norte 0 -- -- 93
2019-06-04 00:00:00 18.1 12 Norte 30 Norte 0 -- -- 92
2019-06-03 23:00:00 18.2 17 Norte 29 Nordeste 0 -- -- 91
2019-06-03 22:00:00 18.5 15 Norte 24 Norte 0 -- -- 90
2019-06-03 21:00:00 18.8 19 Norte 36 Norte 0 -- -- 87
2019-06-03 20:00:00 20.1 21 Norte 31 Norte 0 -- -- 80
2019-06-03 19:00:00 21.3 20 Norte 29 Norte 0 -- -- 75
2019-06-03 18:00:00 22 18 Norte 30 Norte 0 -- -- 76
2019-06-03 17:00:00 23.6 16 Norte 25 Norte 0 -- -- 66
2019-06-03 16:00:00 24 16 Nordeste 24 Norte 0 -- -- 62
2019-06-03 15:00:00 24.9 19 Norte 31 Norte 0 -- -- 58
2019-06-03 14:00:00 23.8 15 Norte 31 Norte 0 -- -- 62
2019-06-03 13:00:00 22.6 21 Norte 41 Norte 0 -- -- 66
2019-06-03 12:00:00 23.6 15 Nordeste 25 Norte 0 -- -- 67
2019-06-03 11:00:00 21.8 15 Norte 25 Norte 0 -- -- 74
2019-06-03 10:00:00 21.2 13 Norte 28 Nordeste 0 -- -- 77
2019-06-03 09:00:00 20.9 18 Nordeste 34 Nordeste 0 -- -- 71
2019-06-03 08:00:00 19.6 22 Nordeste 33 Nordeste 0 -- -- 75
2019-06-03 07:00:00 17.8 6 Este 19 Nordeste 0 -- -- 88
2019-06-03 06:00:00 17.8 5 Oeste 20 Norte 0 -- -- 92
2019-06-03 05:00:00 18.1 15 Norte 30 Norte 0 -- -- 91
2019-06-03 04:00:00 20.6 26 Norte 44 Norte 0 -- -- 67
2019-06-03 03:00:00 18.4 15 Nordeste 35 Nordeste 0 -- -- 81
2019-06-03 02:00:00 20.1 23 Nordeste 36 Nordeste 0 -- -- 70
2019-06-03 01:00:00 20.4 21 Nordeste 33 Norte 0 -- -- 61
2019-06-03 00:00:00 20 22 Nordeste 33 Nordeste 0 -- -- 67
2019-06-02 23:00:00 20.9 19 Norte 39 Nordeste 0 -- -- 67
2019-06-02 22:00:00 20.1 23 Nordeste 44 Nordeste 0 -- -- 78
2019-06-02 21:00:00 22.5 28 Norte 42 Norte 0 -- -- 54
2019-06-02 20:00:00 24.1 31 Nordeste 49 Nordeste 0 -- -- 42
2019-06-02 19:00:00 24.1 30 Nordeste 60 Nordeste 0 -- -- 50
2019-06-02 18:00:00 22.6 6 Nordeste 35 Norte 0 -- -- 67
2019-06-02 17:00:00 26 21 Nordeste 35 Nordeste 0 -- -- 51
2019-06-02 16:00:00 26.3 28 Nordeste 35 Nordeste 0 -- -- 47
2019-06-02 15:00:00 26.3 18 Nordeste 28 Nordeste 0 -- -- 51
2019-06-02 14:00:00 24.4 19 Nordeste 28 Nordeste 0 -- -- 59
2019-06-02 13:00:00 25 14 Nordeste 26 Nordeste 0 -- -- 60
2019-06-02 12:00:00 23.7 17 Nordeste 24 Este 0 -- -- 65
2019-06-02 11:00:00 23.5 19 Nordeste 25 Nordeste 0 -- -- 67
2019-06-02 10:00:00 21.6 17 Nordeste 23 Nordeste 0 -- -- 77
2019-06-02 09:00:00 19.5 13 Este 18 Este 0 -- -- 90
2019-06-02 08:00:00 17.9 11 Este 18 Este 0 -- -- 95
2019-06-02 07:00:00 17.6 3 Este 10 Nordeste 0 -- -- 94
2019-06-02 06:00:00 17.2 3 Este 11 Este 0 -- -- 94
2019-06-02 05:00:00 17.6 4 Este 8 Este 0 -- -- 93
2019-06-02 04:00:00 17.5 0 Calma 4 Este 0 -- -- 90
2019-06-02 03:00:00 18.3 0 Calma 7 Norte 0 -- -- 85
2019-06-02 02:00:00 19.5 4 Sudoeste 8 Oeste 0 -- -- 64
2019-06-02 01:00:00 20.3 2 Norte 5 Sudeste 0 -- -- 54
2019-06-02 00:00:00 20.4 3 Sudoeste 12 Este 0 -- -- 67
2019-06-01 23:00:00 22.5 13 Este 25 Este 0 -- -- 40
2019-06-01 22:00:00 20.3 7 Este 14 Este 0 -- -- 83
2019-06-01 21:00:00 20.3 6 Nordeste 16 Norte 0 -- -- 85
2019-06-01 20:00:00 22 8 Norte 15 Noroeste 0 -- -- 77
2019-06-01 19:00:00 25.9 9 Noroeste 18 Norte 0 -- -- 60
2019-06-01 18:00:00 28.7 13 Norte 24 Norte 0 -- -- 48
2019-06-01 17:00:00 29.5 17 Norte 26 Nordeste 0 -- -- 45
2019-06-01 16:00:00 27.8 14 Norte 24 Norte 0 -- -- 54
2019-06-01 15:00:00 25 16 Norte 24 Norte 0 -- -- 64
2019-06-01 14:00:00 24 14 Norte 24 Norte 0 -- -- 69
2019-06-01 13:00:00 26.6 16 Nordeste 30 Este 0 -- -- 59
2019-06-01 12:00:00 24.8 13 Nordeste 22 Este 0 -- -- 62
2019-06-01 11:00:00 21.1 12 Nordeste 19 Nordeste 0 -- -- 76
2019-06-01 10:00:00 18.4 10 Norte 18 Norte 0 -- -- 88
2019-06-01 09:00:00 17.4 7 Norte 14 Norte 0 -- -- 92
2019-06-01 08:00:00 17 8 Nordeste 16 Norte 0 -- -- 93
2019-06-01 07:00:00 16.9 9 Norte 16 Norte 0 -- -- 92
2019-06-01 06:00:00 17 7 Norte 17 Noroeste 0 -- -- 93
2019-06-01 05:00:00 17 12 Norte 18 Noroeste 0 -- -- 93
2019-06-01 04:00:00 17 10 Noroeste 15 Noroeste 0 -- -- 93
2019-06-01 03:00:00 16.9 8 Norte 15 Norte 0 -- -- 93
2019-06-01 02:00:00 17 6 Norte 12 Norte 0 -- -- 92
2019-06-01 01:00:00 17.1 8 Norte 17 Norte 0 -- -- 91
2019-06-01 00:00:00 17.6 10 Norte 16 Norte 0 -- -- 89
2019-05-31 23:00:00 17.5 8 Nordeste 21 Nordeste 0 -- -- 89
2019-05-31 22:00:00 17.5 12 Norte 19 Norte 0 -- -- 89
2019-05-31 21:00:00 17.7 13 Nordeste 27 Norte 0 -- -- 88
2019-05-31 20:00:00 17.9 17 Noroeste 27 Noroeste 0 -- -- 87
2019-05-31 19:00:00 18.2 17 Norte 28 Noroeste 0 -- -- 85
2019-05-31 18:00:00 18.9 17 Noroeste 25 Noroeste 0 -- -- 81
2019-05-31 17:00:00 19.9 15 Noroeste 26 Norte 0 -- -- 75
2019-05-31 16:00:00 20.6 14 Norte 24 Noroeste 0 -- -- 72
2019-05-31 15:00:00 21 13 Norte 22 Norte 0 -- -- 71
2019-05-31 14:00:00 21.1 14 Norte 24 Norte 0 -- -- 69
2019-05-31 13:00:00 20.6 14 Norte 22 Norte 0 -- -- 72
2019-05-31 12:00:00 19.8 10 Noroeste 20 Norte 0 -- -- 75
2019-05-31 11:00:00 18.5 9 Norte 20 Noroeste 0 -- -- 82
2019-05-31 10:00:00 17.4 11 Norte 22 Noroeste 0 -- -- 86
2019-05-31 09:00:00 16.8 15 Noroeste 23 Noroeste 0 -- -- 89
2019-05-31 08:00:00 16.6 10 Noroeste 20 Noroeste 0 -- -- 91
2019-05-31 07:00:00 16.2 11 Noroeste 20 Noroeste 0 -- -- 91
2019-05-31 06:00:00 16.1 11 Noroeste 19 Noroeste 0 -- -- 91
2019-05-31 05:00:00 16.3 9 Norte 17 Noroeste 0 -- -- 89
2019-05-31 04:00:00 16.3 8 Norte 16 Noroeste 0 -- -- 89
2019-05-31 03:00:00 16.4 10 Noroeste 19 Noroeste 0 -- -- 88
2019-05-31 02:00:00 16.7 9 Noroeste 24 Noroeste 0 -- -- 89
2019-05-31 01:00:00 16.8 12 Noroeste 21 Noroeste 0 -- -- 89
2019-05-31 00:00:00 16.9 10 Noroeste 21 Norte 0 -- -- 88
2019-05-30 23:00:00 17 12 Norte 22 Noroeste 0 -- -- 87
2019-05-30 22:00:00 17.2 13 Noroeste 27 Noroeste 0 -- -- 86
2019-05-30 21:00:00 17.3 14 Noroeste 27 Noroeste 0 -- -- 85
2019-05-30 20:00:00 17.6 15 Noroeste 28 Noroeste 0 -- -- 84
2019-05-30 19:00:00 18.4 17 Noroeste 32 Noroeste 0 -- -- 81
2019-05-30 18:00:00 19.3 18 Noroeste 30 Noroeste 0 -- -- 75
2019-05-30 17:00:00 20 18 Noroeste 31 Noroeste 0 -- -- 72
2019-05-30 16:00:00 20 19 Norte 30 Noroeste 0 -- -- 72
2019-05-30 15:00:00 20.1 17 Norte 26 Noroeste 0 -- -- 71
2019-05-30 14:00:00 20.4 14 Noroeste 24 Noroeste 0 -- -- 71
2019-05-30 13:00:00 19 15 Norte 23 Norte 0 -- -- 77
2019-05-30 12:00:00 18.1 13 Noroeste 23 Noroeste 0 -- -- 80
2019-05-30 11:00:00 17.5 14 Noroeste 23 Noroeste 0 -- -- 84
2019-05-30 10:00:00 17 13 Noroeste 23 Noroeste 0 -- -- 85
2019-05-30 09:00:00 16.4 13 Noroeste 23 Noroeste 0 -- -- 87
2019-05-30 08:00:00 16 13 Noroeste 22 Norte 0 -- -- 88
2019-05-30 07:00:00 15.8 11 Norte 23 Noroeste 0 -- -- 89
2019-05-30 06:00:00 15.7 15 Noroeste 26 Noroeste 0 -- -- 88
2019-05-30 05:00:00 15.7 9 Norte 21 Norte 0 -- -- 87
2019-05-30 04:00:00 15.9 12 Norte 22 Noroeste 0 -- -- 87
2019-05-30 03:00:00 16 13 Noroeste 26 Norte 0 -- -- 87
2019-05-30 02:00:00 16.2 12 Norte 24 Norte 0 -- -- 87
2019-05-30 01:00:00 16.3 13 Norte 25 Norte 0 -- -- 86
2019-05-30 00:00:00 16.4 16 Norte 26 Norte 0 -- -- 85
2019-05-29 23:00:00 16.4 15 Norte 27 Norte 0 -- -- 85
2019-05-29 22:00:00 16.4 14 Norte 30 Norte 0 -- -- 84
2019-05-29 21:00:00 16.7 18 Norte 32 Noroeste 0 -- -- 84
2019-05-29 20:00:00 17.2 19 Norte 31 Noroeste 0 -- -- 82
2019-05-29 19:00:00 17.8 17 Norte 27 Norte 0 -- -- 79
2019-05-29 18:00:00 18.7 16 Norte 29 Norte 0 -- -- 75
2019-05-29 17:00:00 19.5 20 Noroeste 32 Noroeste 0 -- -- 71
2019-05-29 16:00:00 19.5 18 Norte 32 Norte 0 -- -- 71
2019-05-29 15:00:00 19.9 21 Noroeste 32 Noroeste 0 -- -- 69
2019-05-29 14:00:00 19.6 18 Noroeste 33 Noroeste 0 -- -- 70
2019-05-29 13:00:00 19.1 19 Norte 31 Norte 0 -- -- 72
2019-05-29 12:00:00 18.6 20 Norte 31 Noroeste 0 -- -- 73
2019-05-29 11:00:00 18.3 18 Norte 31 Noroeste 0 -- -- 74
2019-05-29 10:00:00 17.5 19 Norte 30 Noroeste 0 -- -- 76
2019-05-29 09:00:00 16.5 19 Norte 28 Norte 0 -- -- 80
2019-05-29 08:00:00 16.1 16 Noroeste 30 Norte 0 -- -- 85
2019-05-29 07:00:00 16 12 Noroeste 27 Norte 0 -- -- 86
2019-05-29 06:00:00 15.9 14 Noroeste 28 Norte 0 -- -- 87
2019-05-29 05:00:00 15.8 15 Norte 28 Noroeste 0 -- -- 86
2019-05-29 04:00:00 15.7 18 Noroeste 29 Norte 0 -- -- 87
2019-05-29 03:00:00 15.7 18 Norte 29 Norte 0 -- -- 87
2019-05-29 02:00:00 16 18 Norte 29 Norte 0 -- -- 89
2019-05-29 01:00:00 16.1 19 Norte 33 Norte 0 -- -- 88
2019-05-29 00:00:00 16.4 20 Norte 30 Norte 0 -- -- 88
2019-05-28 23:00:00 16.5 18 Norte 30 Norte 0 -- -- 87
2019-05-28 22:00:00 16.6 18 Norte 33 Norte 0 -- -- 86
2019-05-28 21:00:00 16.7 22 Norte 35 Norte 0 -- -- 87
2019-05-28 20:00:00 16.9 20 Norte 35 Norte 0 -- -- 86
2019-05-28 19:00:00 17.4 21 Norte 36 Norte 0 -- -- 85
2019-05-28 18:00:00 17.9 24 Norte 38 Norte 0 -- -- 82
2019-05-28 17:00:00 18.4 26 Norte 35 Norte 0 -- -- 80
2019-05-28 16:00:00 18.7 23 Norte 34 Norte 0 -- -- 81
2019-05-28 15:00:00 18.9 22 Norte 36 Norte 0 -- -- 77
2019-05-28 14:00:00 18.5 20 Norte 32 Norte 0 -- -- 82
2019-05-28 13:00:00 18.2 22 Norte 34 Norte 0 -- -- 81
2019-05-28 12:00:00 17.8 22 Norte 35 Norte 0 -- -- 84
2019-05-28 11:00:00 17.6 23 Norte 35 Norte 0 -- -- 85
2019-05-28 10:00:00 17.5 22 Norte 33 Norte 0 -- -- 84
2019-05-28 09:00:00 16.7 22 Norte 35 Norte 0 -- -- 88
2019-05-28 08:00:00 16.3 21 Norte 32 Norte 0 -- -- 91
2019-05-28 07:00:00 16.4 18 Norte 30 Norte 0 -- -- 92
2019-05-28 06:00:00 16.2 22 Norte 29 Norte 0 -- -- 92
2019-05-28 05:00:00 16.3 22 Norte 30 Norte 0 -- -- 92
2019-05-28 04:00:00 16.4 21 Norte 37 Norte 0 -- -- 91
2019-05-28 03:00:00 16.7 22 Norte 39 Nordeste 0 -- -- 90
2019-05-28 02:00:00 16.9 23 Norte 44 Nordeste 0 -- -- 91
2019-05-28 01:00:00 16.9 23 Norte 36 Norte 0 -- -- 90
2019-05-28 00:00:00 17 25 Norte 33 Nordeste 0 -- -- 89